createdAt,value
2022-12-19T00:00:20.850Z,-3.60
2022-12-19T00:01:20.862Z,-3.57
2022-12-19T00:02:20.991Z,-3.48
2022-12-19T00:03:20.979Z,-3.53
2022-12-19T00:04:20.803Z,-3.59
2022-12-19T00:05:20.843Z,-3.54
2022-12-19T00:06:20.784Z,-3.49
2022-12-19T00:07:20.770Z,-3.60
2022-12-19T00:08:20.783Z,-3.60
2022-12-19T00:09:20.777Z,-3.52
2022-12-19T00:10:20.760Z,-3.48
2022-12-19T00:11:20.760Z,-3.53
2022-12-19T00:12:20.717Z,-3.52
2022-12-19T00:13:20.712Z,-3.59
2022-12-19T00:14:20.703Z,-3.52
2022-12-19T00:15:20.698Z,-3.60
2022-12-19T00:16:20.799Z,-3.54
2022-12-19T00:17:20.675Z,-3.53
2022-12-19T00:18:20.753Z,-3.53
2022-12-19T00:19:20.664Z,-3.45
2022-12-19T00:20:20.641Z,-3.56
2022-12-19T00:21:20.660Z,-3.45
2022-12-19T00:22:20.626Z,-3.46
2022-12-19T00:23:20.639Z,-3.45
2022-12-19T00:24:21.811Z,-3.46
2022-12-19T00:25:20.619Z,-3.53
2022-12-19T00:26:20.597Z,-3.53
2022-12-19T00:27:20.607Z,-3.45
2022-12-19T00:28:20.567Z,-3.42
2022-12-19T00:29:20.570Z,-3.45
2022-12-19T00:30:20.558Z,-3.45
2022-12-19T00:31:20.628Z,-3.41
2022-12-19T00:32:20.558Z,-3.45
2022-12-19T00:33:20.533Z,-3.46
2022-12-19T00:34:20.608Z,-3.33
2022-12-19T00:35:20.531Z,-3.38
2022-12-19T00:36:22.548Z,-3.39
2022-12-19T00:37:20.522Z,-3.38
2022-12-19T00:38:20.484Z,-3.35
2022-12-19T00:39:28.006Z,-3.42
2022-12-19T00:40:20.467Z,-3.36
2022-12-19T00:41:20.447Z,-3.41
2022-12-19T00:42:20.444Z,-3.31
2022-12-19T00:43:20.439Z,-3.42
2022-12-19T00:44:20.416Z,-3.31
2022-12-19T00:45:20.405Z,-3.31
2022-12-19T00:46:28.740Z,-3.33
2022-12-19T00:47:20.407Z,-3.33
2022-12-19T00:48:20.408Z,-3.33
2022-12-19T00:49:20.378Z,-3.38
2022-12-19T00:50:20.452Z,-3.31
2022-12-19T00:51:20.344Z,-3.31
2022-12-19T00:52:20.338Z,-3.31
2022-12-19T00:53:20.327Z,-3.38
2022-12-19T00:54:20.414Z,-3.35
2022-12-19T00:55:20.421Z,-3.31
2022-12-19T00:56:20.295Z,-3.31
2022-12-19T00:57:20.303Z,-3.33
2022-12-19T00:58:20.279Z,-3.35
2022-12-19T00:59:26.387Z,-3.33
2022-12-19T01:00:20.283Z,-3.24
2022-12-19T01:01:20.422Z,-3.24
2022-12-19T01:02:20.392Z,-3.31
2022-12-19T01:03:20.309Z,-3.25
2022-12-19T01:04:28.867Z,-3.33
2022-12-19T01:05:20.225Z,-3.24
2022-12-19T01:06:20.299Z,-3.20
2022-12-19T01:07:20.200Z,-3.28
2022-12-19T01:08:20.195Z,-3.18
2022-12-19T01:09:20.220Z,-3.27
2022-12-19T01:10:21.179Z,-3.15
2022-12-19T01:11:20.158Z,-3.28
2022-12-19T01:12:20.988Z,-3.15
2022-12-19T01:13:20.154Z,-3.18
2022-12-19T01:14:23.004Z,-3.15
2022-12-19T01:15:20.140Z,-3.09
2022-12-19T01:16:20.165Z,-3.20
2022-12-19T01:17:20.190Z,-3.12
2022-12-19T01:18:20.090Z,-3.02
2022-12-19T01:19:20.100Z,-3.03
2022-12-19T01:20:29.307Z,-3.05
2022-12-19T01:21:20.069Z,-3.15
2022-12-19T01:22:20.150Z,-3.14
2022-12-19T01:23:20.042Z,-3.05
2022-12-19T01:24:20.058Z,-3.07
2022-12-19T01:25:20.024Z,-3.02
2022-12-19T01:26:20.043Z,-3.00
2022-12-19T01:27:20.014Z,-3.00
2022-12-19T01:28:20.013Z,-2.96
2022-12-19T01:29:19.987Z,-2.99
2022-12-19T01:30:20.004Z,-2.91
2022-12-19T01:31:20.069Z,-2.91
2022-12-19T01:32:19.976Z,-2.88
2022-12-19T01:33:19.956Z,-2.89
2022-12-19T01:34:19.948Z,-2.81
2022-12-19T01:35:21.590Z,-2.84
2022-12-19T01:36:19.921Z,-2.88
2022-12-19T01:37:19.951Z,-2.92
2022-12-19T01:38:20.016Z,-2.81
2022-12-19T01:39:19.910Z,-2.84
2022-12-19T01:40:19.903Z,-2.81
2022-12-19T01:41:19.911Z,-2.82
2022-12-19T01:42:23.658Z,-2.85
2022-12-19T01:43:19.858Z,-2.85
2022-12-19T01:44:19.850Z,-2.82
2022-12-19T01:45:19.860Z,-2.82
2022-12-19T01:46:19.928Z,-2.89
2022-12-19T01:47:19.836Z,-2.86
2022-12-19T01:48:19.821Z,-2.99
2022-12-19T01:49:20.957Z,-2.97
2022-12-19T01:50:19.803Z,-2.91
2022-12-19T01:51:19.795Z,-2.82
2022-12-19T01:52:22.985Z,-2.88
2022-12-19T01:53:19.782Z,-2.81
2022-12-19T01:54:19.844Z,-2.84
2022-12-19T01:55:19.764Z,-2.85
2022-12-19T01:56:19.715Z,-2.82
2022-12-19T01:57:19.712Z,-2.92
2022-12-19T01:58:19.697Z,-2.84
2022-12-19T01:59:19.694Z,-2.89
2022-12-19T02:00:19.698Z,-2.86
2022-12-19T02:01:19.787Z,-2.85
2022-12-19T02:02:19.689Z,-2.82
2022-12-19T02:03:19.708Z,-2.85
2022-12-19T02:04:19.652Z,-2.82
2022-12-19T02:05:19.631Z,-2.84
2022-12-19T02:06:19.648Z,-2.82
2022-12-19T02:07:19.623Z,-2.96
2022-12-19T02:08:19.621Z,-2.82
2022-12-19T02:09:19.605Z,-2.89
2022-12-19T02:10:19.697Z,-2.84
2022-12-19T02:11:19.574Z,-2.82
2022-12-19T02:12:19.588Z,-2.85
2022-12-19T02:13:19.583Z,-2.88
2022-12-19T02:14:19.550Z,-2.89
2022-12-19T02:15:19.537Z,-2.89
2022-12-19T02:16:19.535Z,-2.86
2022-12-19T02:17:19.550Z,-2.85
2022-12-19T02:18:19.767Z,-2.84
2022-12-19T02:19:19.515Z,-2.86
2022-12-19T02:20:19.496Z,-2.94
2022-12-19T02:21:19.481Z,-2.84
2022-12-19T02:22:19.493Z,-2.81
2022-12-19T02:23:19.484Z,-2.85
2022-12-19T02:24:19.475Z,-2.82
2022-12-19T02:25:19.487Z,-2.82
2022-12-19T02:26:19.535Z,-2.81
2022-12-19T02:27:19.436Z,-2.82
2022-12-19T02:28:19.423Z,-2.82
2022-12-19T02:29:19.432Z,-2.92
2022-12-19T02:30:19.413Z,-2.85
2022-12-19T02:31:19.439Z,-2.99
2022-12-19T02:32:19.405Z,-2.82
2022-12-19T02:33:19.389Z,-2.88
2022-12-19T02:34:19.368Z,-2.96
2022-12-19T02:35:19.416Z,-2.91
2022-12-19T02:36:19.377Z,-3.03
2022-12-19T02:37:19.368Z,-2.97
2022-12-19T02:38:19.339Z,-2.89
2022-12-19T02:39:19.341Z,-2.85
2022-12-19T02:40:19.316Z,-2.91
2022-12-19T02:41:19.387Z,-2.88
2022-12-19T02:42:19.400Z,-2.86
2022-12-19T02:43:19.321Z,-2.89
2022-12-19T02:44:19.317Z,-3.03
2022-12-19T02:45:23.484Z,-3.02
2022-12-19T02:46:19.336Z,-2.92
2022-12-19T02:47:19.269Z,-3.03
2022-12-19T02:48:19.639Z,-2.97
2022-12-19T02:49:21.830Z,-3.00
2022-12-19T02:50:19.260Z,-3.00
2022-12-19T02:51:19.239Z,-2.88
2022-12-19T02:52:19.232Z,-2.86
2022-12-19T02:53:23.554Z,-2.84
2022-12-19T02:54:19.231Z,-2.89
2022-12-19T02:55:19.185Z,-2.86
2022-12-19T02:56:19.227Z,-2.88
2022-12-19T02:57:19.206Z,-2.86
2022-12-19T02:58:19.283Z,-2.84
2022-12-19T02:59:19.151Z,-2.94
2022-12-19T03:00:19.161Z,-2.96
2022-12-19T03:01:19.270Z,-2.92
2022-12-19T03:02:19.324Z,-2.85
2022-12-19T03:03:19.158Z,-2.97
2022-12-19T03:04:19.131Z,-2.86
2022-12-19T03:05:19.110Z,-2.88
2022-12-19T03:06:19.124Z,-2.84
2022-12-19T03:07:19.099Z,-2.91
2022-12-19T03:08:19.137Z,-2.81
2022-12-19T03:09:19.081Z,-2.92
2022-12-19T03:10:19.059Z,-2.86
2022-12-19T03:11:19.062Z,-2.78
2022-12-19T03:12:19.068Z,-2.85
2022-12-19T03:13:19.084Z,-2.81
2022-12-19T03:14:19.123Z,-2.77
2022-12-19T03:15:19.034Z,-2.85
2022-12-19T03:16:19.045Z,-2.82
2022-12-19T03:17:19.057Z,-2.89
2022-12-19T03:18:18.989Z,-2.82
2022-12-19T03:19:19.007Z,-2.88
2022-12-19T03:20:18.978Z,-2.86
2022-12-19T03:21:18.977Z,-2.86
2022-12-19T03:22:18.962Z,-2.85
2022-12-19T03:23:18.946Z,-2.82
2022-12-19T03:24:18.967Z,-2.77
2022-12-19T03:25:18.943Z,-2.78
2022-12-19T03:26:18.939Z,-2.86
2022-12-19T03:27:18.922Z,-2.79
2022-12-19T03:28:18.919Z,-2.78
2022-12-19T03:29:18.932Z,-2.73
2022-12-19T03:30:18.999Z,-2.82
2022-12-19T03:31:18.921Z,-2.81
2022-12-19T03:32:18.882Z,-2.73
2022-12-19T03:33:18.873Z,-2.84
2022-12-19T03:34:18.869Z,-2.79
2022-12-19T03:35:18.867Z,-2.73
2022-12-19T03:36:18.845Z,-2.79
2022-12-19T03:37:18.821Z,-2.77
2022-12-19T03:38:18.846Z,-2.73
2022-12-19T03:39:18.827Z,-2.73
2022-12-19T03:40:18.864Z,-2.84
2022-12-19T03:41:19.689Z,-2.82
2022-12-19T03:42:18.809Z,-2.82
2022-12-19T03:43:18.895Z,-2.77
2022-12-19T03:44:18.762Z,-2.71
2022-12-19T03:45:18.794Z,-2.77
2022-12-19T03:46:19.021Z,-2.82
2022-12-19T03:47:18.753Z,-2.82
2022-12-19T03:48:18.734Z,-2.77
2022-12-19T03:49:18.746Z,-2.73
2022-12-19T03:50:18.721Z,-2.71
2022-12-19T03:51:18.718Z,-2.74
2022-12-19T03:52:18.695Z,-2.68
2022-12-19T03:53:18.701Z,-2.74
2022-12-19T03:54:18.703Z,-2.70
2022-12-19T03:55:18.719Z,-2.77
2022-12-19T03:56:18.651Z,-2.68
2022-12-19T03:57:18.662Z,-2.67
2022-12-19T03:58:18.701Z,-2.79
2022-12-19T03:59:18.652Z,-2.74
2022-12-19T04:00:18.666Z,-2.78
2022-12-19T04:02:50.752Z,-2.74
2022-12-19T04:03:50.775Z,-2.66
2022-12-19T04:04:50.647Z,-2.68
2022-12-19T04:05:50.651Z,-2.74
2022-12-19T04:06:50.625Z,-2.77
2022-12-19T04:07:50.602Z,-2.68
2022-12-19T04:08:50.600Z,-2.79
2022-12-19T04:09:50.601Z,-2.71
2022-12-19T04:10:50.602Z,-2.78
2022-12-19T04:11:50.578Z,-2.77
2022-12-19T04:12:50.573Z,-2.86
2022-12-19T04:13:50.554Z,-2.82
2022-12-19T04:14:50.560Z,-2.77
2022-12-19T04:15:50.608Z,-2.84
2022-12-19T04:16:50.535Z,-2.71
2022-12-19T04:17:50.536Z,-2.79
2022-12-19T04:18:50.603Z,-2.77
2022-12-19T04:19:50.530Z,-2.79
2022-12-19T04:20:50.503Z,-2.78
2022-12-19T04:21:50.495Z,-2.78
2022-12-19T04:22:50.478Z,-2.81
2022-12-19T04:23:50.460Z,-2.70
2022-12-19T04:24:50.449Z,-2.71
2022-12-19T04:25:50.458Z,-2.70
2022-12-19T04:26:50.432Z,-2.78
2022-12-19T04:27:50.430Z,-2.77
2022-12-19T04:28:50.425Z,-2.68
2022-12-19T04:29:50.418Z,-2.68
2022-12-19T04:30:50.409Z,-2.81
2022-12-19T04:31:50.410Z,-2.77
2022-12-19T04:32:50.382Z,-2.79
2022-12-19T04:33:50.378Z,-2.79
2022-12-19T04:34:50.453Z,-2.70
2022-12-19T04:35:50.358Z,-2.78
2022-12-19T04:36:50.351Z,-2.71
2022-12-19T04:37:50.360Z,-2.74
2022-12-19T04:38:50.323Z,-2.79
2022-12-19T04:39:50.326Z,-2.66
2022-12-19T04:40:50.339Z,-2.71
2022-12-19T04:41:50.292Z,-2.81
2022-12-19T04:42:50.295Z,-2.82
2022-12-19T04:43:50.282Z,-2.79
2022-12-19T04:44:50.287Z,-2.74
2022-12-19T04:45:55.551Z,-2.81
2022-12-19T04:46:50.288Z,-2.73
2022-12-19T04:47:50.237Z,-2.78
2022-12-19T04:48:50.241Z,-2.68
2022-12-19T04:49:50.229Z,-2.66
2022-12-19T04:50:50.306Z,-2.81
2022-12-19T04:51:50.200Z,-2.68
2022-12-19T04:52:55.638Z,-2.71
2022-12-19T04:53:50.193Z,-2.74
2022-12-19T04:54:50.178Z,-2.77
2022-12-19T04:55:50.161Z,-2.74
2022-12-19T04:56:50.176Z,-2.74
2022-12-19T04:57:50.169Z,-2.73
2022-12-19T04:58:50.430Z,-2.81
2022-12-19T04:59:50.158Z,-2.71
2022-12-19T05:00:50.129Z,-2.71
2022-12-19T05:01:50.189Z,-2.85
2022-12-19T05:02:50.288Z,-2.79
2022-12-19T05:03:55.101Z,-2.78
2022-12-19T05:04:50.133Z,-2.70
2022-12-19T05:05:50.097Z,-2.77
2022-12-19T05:06:50.170Z,-2.78
2022-12-19T05:07:50.077Z,-2.67
2022-12-19T05:08:50.064Z,-2.81
2022-12-19T05:09:50.076Z,-2.70
2022-12-19T05:10:50.066Z,-2.77
2022-12-19T05:11:50.040Z,-2.78
2022-12-19T05:12:50.052Z,-2.78
2022-12-19T05:13:50.141Z,-2.73
2022-12-19T05:14:50.024Z,-2.71
2022-12-19T05:15:50.082Z,-2.78
2022-12-19T05:16:50.009Z,-2.74
2022-12-19T05:17:49.982Z,-2.78
2022-12-19T05:18:50.014Z,-2.77
2022-12-19T05:19:49.952Z,-2.73
2022-12-19T05:20:49.970Z,-2.70
2022-12-19T05:21:49.983Z,-2.71
2022-12-19T05:22:50.024Z,-2.70
2022-12-19T05:23:49.928Z,-2.68
2022-12-19T05:24:49.923Z,-2.74
2022-12-19T05:25:49.902Z,-2.61
2022-12-19T05:26:49.906Z,-2.71
2022-12-19T05:27:49.928Z,-2.63
2022-12-19T05:28:49.883Z,-2.67
2022-12-19T05:29:49.892Z,-2.61
2022-12-19T05:30:52.534Z,-2.58
2022-12-19T05:31:49.889Z,-2.61
2022-12-19T05:32:49.847Z,-2.58
2022-12-19T05:33:49.848Z,-2.52
2022-12-19T05:34:49.820Z,-2.53
2022-12-19T05:35:49.809Z,-2.50
2022-12-19T05:36:49.803Z,-2.50
2022-12-19T05:37:49.816Z,-2.49
2022-12-19T05:38:49.905Z,-2.55
2022-12-19T05:39:49.792Z,-2.58
2022-12-19T05:40:49.777Z,-2.46
2022-12-19T05:41:49.780Z,-2.46
2022-12-19T05:42:49.773Z,-2.43
2022-12-19T05:43:49.783Z,-2.32
2022-12-19T05:44:49.737Z,-2.37
2022-12-19T05:45:49.718Z,-2.35
2022-12-19T05:46:49.792Z,-2.24
2022-12-19T05:47:49.714Z,-2.32
2022-12-19T05:48:49.719Z,-2.30
2022-12-19T05:49:49.718Z,-2.37
2022-12-19T05:50:49.700Z,-2.32
2022-12-19T05:51:49.721Z,-2.26
2022-12-19T05:52:49.672Z,-2.32
2022-12-19T05:53:49.653Z,-2.26
2022-12-19T05:54:49.746Z,-2.27
2022-12-19T05:55:49.681Z,-2.29
2022-12-19T05:56:49.635Z,-2.29
2022-12-19T05:57:49.638Z,-2.20
2022-12-19T05:58:49.611Z,-2.21
2022-12-19T05:59:49.636Z,-2.16
2022-12-19T06:00:49.615Z,-2.16
2022-12-19T06:01:49.717Z,-2.26
2022-12-19T06:02:50.507Z,-2.13
2022-12-19T06:03:49.643Z,-2.16
2022-12-19T06:04:49.548Z,-2.09
2022-12-19T06:05:49.574Z,-2.10
2022-12-19T06:06:49.543Z,-2.10
2022-12-19T06:07:49.720Z,-2.12
2022-12-19T06:08:49.581Z,-2.02
2022-12-19T06:09:51.264Z,-2.10
2022-12-19T06:10:49.598Z,-2.13
2022-12-19T06:11:49.527Z,-2.03
2022-12-19T06:12:49.584Z,-2.03
2022-12-19T06:13:49.507Z,-1.92
2022-12-19T06:14:56.776Z,-2.08
2022-12-19T06:15:50.304Z,-2.03
2022-12-19T06:16:49.462Z,-1.94
2022-12-19T06:17:49.636Z,-1.98
2022-12-19T06:18:49.454Z,-1.98
2022-12-19T06:19:49.481Z,-1.91
2022-12-19T06:20:49.447Z,-1.92
2022-12-19T06:21:49.499Z,-1.91
2022-12-19T06:22:49.454Z,-1.92
2022-12-19T06:23:49.398Z,-1.94
2022-12-19T06:24:52.449Z,-1.91
2022-12-19T06:25:49.393Z,-1.97
2022-12-19T06:26:51.301Z,-1.97
2022-12-19T06:27:49.401Z,-1.82
2022-12-19T06:28:49.374Z,-1.88
2022-12-19T06:29:49.360Z,-1.88
2022-12-19T06:30:49.336Z,-1.85
2022-12-19T06:31:49.411Z,-1.79
2022-12-19T06:32:49.319Z,-1.84
2022-12-19T06:33:49.337Z,-1.79
2022-12-19T06:35:04.155Z,-1.85
2022-12-19T06:35:49.322Z,-1.74
2022-12-19T06:36:50.917Z,-1.85
2022-12-19T06:37:49.283Z,-1.87
2022-12-19T06:38:50.847Z,-1.84
2022-12-19T06:39:57.391Z,-1.84
2022-12-19T06:40:49.245Z,-1.87
2022-12-19T06:41:49.241Z,-1.70
2022-12-19T06:42:49.367Z,-1.74
2022-12-19T06:43:53.416Z,-1.80
2022-12-19T06:44:49.200Z,-1.80
2022-12-19T06:45:49.268Z,-1.73
2022-12-19T06:46:49.186Z,-1.79
2022-12-19T06:47:49.199Z,-1.77
2022-12-19T06:48:49.181Z,-1.80
2022-12-19T06:49:49.166Z,-1.80
2022-12-19T06:50:49.151Z,-1.77
2022-12-19T06:51:49.139Z,-1.80
2022-12-19T06:52:49.159Z,-1.72
2022-12-19T06:53:49.166Z,-1.69
2022-12-19T06:54:49.132Z,-1.70
2022-12-19T06:55:49.114Z,-1.67
2022-12-19T06:56:49.116Z,-1.69
2022-12-19T06:57:49.096Z,-1.67
2022-12-19T06:58:49.203Z,-1.69
2022-12-19T06:59:49.072Z,-1.61
2022-12-19T07:00:49.105Z,-1.61
2022-12-19T07:01:49.153Z,-1.58
2022-12-19T07:02:49.089Z,-1.54
2022-12-19T07:03:49.068Z,-1.54
2022-12-19T07:04:49.035Z,-1.51
2022-12-19T07:05:49.031Z,-1.51
2022-12-19T07:06:49.449Z,-1.52
2022-12-19T07:07:49.017Z,-1.54
2022-12-19T07:08:49.011Z,-1.38
2022-12-19T07:09:49.016Z,-1.51
2022-12-19T07:10:49.083Z,-1.40
2022-12-19T07:11:48.976Z,-1.38
2022-12-19T07:12:48.968Z,-1.37
2022-12-19T07:13:48.961Z,-1.38
2022-12-19T07:14:53.178Z,-1.40
2022-12-19T07:15:48.941Z,-1.43
2022-12-19T07:16:48.953Z,-1.38
2022-12-19T07:17:48.925Z,-1.38
2022-12-19T07:18:48.933Z,-1.35
2022-12-19T07:19:48.909Z,-1.35
2022-12-19T07:20:48.897Z,-1.34
2022-12-19T07:21:48.910Z,-1.30
2022-12-19T07:22:48.897Z,-1.37
2022-12-19T07:23:48.863Z,-1.28
2022-12-19T07:24:48.863Z,-1.22
2022-12-19T07:25:48.864Z,-1.27
2022-12-19T07:26:48.844Z,-1.22
2022-12-19T07:27:48.849Z,-1.22
2022-12-19T07:28:48.851Z,-1.28
2022-12-19T07:29:48.817Z,-1.20
2022-12-19T07:30:48.941Z,-1.19
2022-12-19T07:31:48.829Z,-1.19
2022-12-19T07:32:48.820Z,-1.23
2022-12-19T07:33:48.788Z,-1.20
2022-12-19T07:34:48.806Z,-1.16
2022-12-19T07:35:48.783Z,-1.16
2022-12-19T07:36:48.758Z,-1.22
2022-12-19T07:37:48.774Z,-1.16
2022-12-19T07:38:48.754Z,-1.07
2022-12-19T07:39:48.769Z,-1.12
2022-12-19T07:40:48.782Z,-1.05
2022-12-19T07:41:48.722Z,-1.05
2022-12-19T07:42:48.738Z,-1.07
2022-12-19T07:43:48.726Z,-0.98
2022-12-19T07:44:48.707Z,-0.97
2022-12-19T07:45:48.722Z,-1.01
2022-12-19T07:46:48.795Z,-0.99
2022-12-19T07:47:48.705Z,-0.95
2022-12-19T07:48:48.665Z,-1.04
2022-12-19T07:49:48.667Z,-0.99
2022-12-19T07:50:48.644Z,-0.91
2022-12-19T07:51:48.646Z,-0.85
2022-12-19T07:52:48.628Z,-0.89
2022-12-19T07:53:48.641Z,-0.92
2022-12-19T07:54:48.619Z,-0.86
2022-12-19T07:55:48.620Z,-0.85
2022-12-19T07:56:48.693Z,-0.83
2022-12-19T07:57:48.605Z,-0.78
2022-12-19T07:58:48.595Z,-0.89
2022-12-19T07:59:48.586Z,-0.97
2022-12-19T08:00:48.606Z,-0.78
2022-12-19T08:01:48.691Z,-0.80
2022-12-19T08:02:48.857Z,-0.79
2022-12-19T08:03:48.541Z,-0.76
2022-12-19T08:04:48.550Z,-0.79
2022-12-19T08:05:48.549Z,-0.69
2022-12-19T08:06:48.530Z,-0.73
2022-12-19T08:07:48.509Z,-0.67
2022-12-19T08:08:48.531Z,-0.65
2022-12-19T08:09:48.504Z,-0.67
2022-12-19T08:10:48.496Z,-0.70
2022-12-19T08:11:48.489Z,-0.65
2022-12-19T08:12:48.472Z,-0.67
2022-12-19T08:13:48.463Z,-0.54
2022-12-19T08:14:49.882Z,-0.62
2022-12-19T08:15:48.452Z,-0.60
2022-12-19T08:17:19.287Z,-0.62
2022-12-19T08:17:48.511Z,-0.58
2022-12-19T08:18:48.514Z,-0.54
2022-12-19T08:19:48.429Z,-0.55
2022-12-19T08:20:48.443Z,-0.54
2022-12-19T08:21:48.414Z,-0.52
2022-12-19T08:22:48.398Z,-0.51
2022-12-19T08:23:48.398Z,-0.46
2022-12-19T08:24:48.404Z,-0.52
2022-12-19T08:25:48.388Z,-0.47
2022-12-19T08:26:48.372Z,-0.47
2022-12-19T08:27:48.350Z,-0.47
2022-12-19T08:28:48.372Z,-0.39
2022-12-19T08:29:48.351Z,-0.36
2022-12-19T08:30:48.363Z,-0.33
2022-12-19T08:31:48.319Z,-0.36
2022-12-19T08:32:48.329Z,-0.39
2022-12-19T08:33:48.321Z,-0.37
2022-12-19T08:34:48.396Z,-0.31
2022-12-19T08:35:48.299Z,-0.29
2022-12-19T08:36:48.288Z,-0.22
2022-12-19T08:37:48.296Z,-0.29
2022-12-19T08:38:48.285Z,-0.33
2022-12-19T08:39:48.269Z,-0.26
2022-12-19T08:40:48.275Z,-0.28
2022-12-19T08:41:48.300Z,-0.39
2022-12-19T08:42:48.253Z,-0.36
2022-12-19T08:43:48.249Z,-0.33
2022-12-19T08:44:48.229Z,-0.31
2022-12-19T08:45:48.252Z,-0.21
2022-12-19T08:46:50.264Z,-0.33
2022-12-19T08:47:48.414Z,-0.29
2022-12-19T08:48:48.191Z,-0.31
2022-12-19T08:49:48.194Z,-0.16
2022-12-19T08:50:48.278Z,-0.19
2022-12-19T08:51:48.163Z,-0.19
2022-12-19T08:52:48.207Z,-0.15
2022-12-19T08:53:48.177Z,-0.18
2022-12-19T08:54:48.204Z,-0.08
2022-12-19T08:55:48.145Z,-0.10
2022-12-19T08:56:48.138Z,-0.10
2022-12-19T08:57:48.118Z,-0.10
2022-12-19T08:58:48.142Z,-0.11
2022-12-19T09:02:06.257Z,-0.07
2022-12-19T09:03:05.560Z,-0.04
2022-12-19T09:05:02.098Z,0.02
2022-12-19T09:05:58.156Z,0.02
2022-12-19T09:06:09.368Z,-0.07
2022-12-19T09:07:05.351Z,-0.01
2022-12-19T09:08:05.489Z,0.03
2022-12-19T09:09:05.336Z,0.00
2022-12-19T09:10:06.051Z,0.00
2022-12-19T09:11:05.351Z,0.04
2022-12-19T09:12:05.451Z,0.00
2022-12-19T09:13:05.342Z,0.03
2022-12-19T09:14:05.326Z,0.14
2022-12-19T09:15:06.749Z,0.03
2022-12-19T09:16:05.304Z,0.18
2022-12-19T09:17:06.963Z,0.17
2022-12-19T09:18:05.352Z,0.14
2022-12-19T09:19:12.425Z,0.20
2022-12-19T09:20:05.476Z,0.13
2022-12-19T09:21:06.873Z,0.26
2022-12-19T09:22:05.347Z,0.32
2022-12-19T09:23:05.261Z,0.38
2022-12-19T09:24:08.199Z,0.31
2022-12-19T09:25:05.292Z,0.31
2022-12-19T09:28:09.419Z,0.32
2022-12-19T09:29:12.169Z,0.32
2022-12-19T09:30:07.380Z,0.35
2022-12-19T09:31:21.385Z,0.39
2022-12-19T09:32:08.397Z,0.36
2022-12-19T09:33:10.907Z,0.44
2022-12-19T09:34:12.615Z,0.50
2022-12-19T09:35:09.592Z,0.57
2022-12-19T09:36:06.411Z,0.46
2022-12-19T09:37:18.887Z,0.50
2022-12-19T09:38:13.913Z,0.57
2022-12-19T09:39:11.393Z,0.57
2022-12-19T09:40:26.893Z,0.51
2022-12-19T09:41:05.123Z,0.66
2022-12-19T09:42:09.382Z,0.57
2022-12-19T09:43:08.415Z,0.60
2022-12-19T09:44:07.066Z,0.68
2022-12-19T09:45:10.528Z,0.69
2022-12-19T09:46:05.381Z,0.69
2022-12-19T09:47:05.083Z,0.78
2022-12-19T09:48:05.846Z,0.75
2022-12-19T09:49:05.056Z,0.75
2022-12-19T09:50:05.059Z,0.75
2022-12-19T09:51:10.623Z,0.76
2022-12-19T09:52:05.061Z,0.83
2022-12-19T09:53:05.765Z,0.83
2022-12-19T09:54:06.083Z,0.96
2022-12-19T09:55:05.056Z,0.96
2022-12-19T09:56:05.102Z,0.91
2022-12-19T09:57:07.033Z,0.94
2022-12-19T09:59:49.634Z,1.09
2022-12-19T10:00:44.825Z,1.08
2022-12-19T10:01:44.943Z,1.05
2022-12-19T10:02:45.167Z,1.14
2022-12-19T10:03:45.110Z,1.18
2022-12-19T10:04:44.787Z,1.20
2022-12-19T10:07:10.474Z,1.26
2022-12-19T10:07:11.790Z,1.24
2022-12-19T10:08:07.228Z,1.29
2022-12-19T10:09:19.330Z,1.32
2022-12-19T10:12:33.447Z,1.36
2022-12-19T10:12:36.579Z,1.36
2022-12-19T10:12:42.764Z,1.37
2022-12-19T10:12:51.102Z,1.42
2022-12-19T10:13:44.940Z,1.47
2022-12-19T10:14:44.741Z,1.41
2022-12-19T10:15:56.168Z,1.45
2022-12-19T10:16:56.493Z,1.48
2022-12-19T10:17:44.701Z,1.52
2022-12-19T10:18:45.016Z,1.47
2022-12-19T10:19:44.683Z,1.48
2022-12-19T10:20:44.669Z,1.51
2022-12-19T10:22:16.160Z,1.50
2022-12-19T10:22:44.648Z,1.55
2022-12-19T10:23:45.054Z,1.54
2022-12-19T10:24:46.523Z,1.52
2022-12-19T10:25:44.637Z,1.54
2022-12-19T10:26:44.643Z,1.59
2022-12-19T10:27:59.559Z,1.63
2022-12-19T10:28:44.887Z,1.62
2022-12-19T10:29:44.661Z,1.63
2022-12-19T10:30:44.696Z,1.66
2022-12-19T10:31:44.588Z,1.68
2022-12-19T10:32:44.582Z,1.69
2022-12-19T10:33:44.928Z,1.70
2022-12-19T10:34:44.627Z,1.70
2022-12-19T10:35:44.616Z,1.72
2022-12-19T10:37:49.309Z,1.70
2022-12-19T10:38:46.251Z,1.70
2022-12-19T10:39:44.559Z,1.80
2022-12-19T10:40:44.639Z,1.80
2022-12-19T10:41:44.527Z,1.83
2022-12-19T10:42:44.518Z,1.87
2022-12-19T10:43:44.894Z,1.87
2022-12-19T10:44:45.015Z,1.86
2022-12-19T10:45:45.380Z,1.99
2022-12-19T10:46:44.652Z,1.99
2022-12-19T10:47:44.516Z,2.05
2022-12-19T10:48:44.493Z,2.06
2022-12-19T10:49:44.467Z,2.10
2022-12-19T10:50:44.480Z,2.06
2022-12-19T10:51:44.471Z,2.17
2022-12-19T10:52:44.474Z,2.17
2022-12-19T10:53:44.485Z,2.14
2022-12-19T10:54:44.448Z,2.17
2022-12-19T10:55:44.459Z,2.07
2022-12-19T10:56:44.555Z,2.20
2022-12-19T10:57:44.423Z,2.20
2022-12-19T10:58:44.568Z,2.09
2022-12-19T10:59:44.399Z,2.16
2022-12-19T11:00:44.416Z,2.17
2022-12-19T11:01:44.726Z,2.21
2022-12-19T11:02:44.779Z,2.16
2022-12-19T11:03:44.419Z,2.21
2022-12-19T11:04:44.541Z,2.24
2022-12-19T11:05:44.441Z,2.20
2022-12-19T11:06:44.375Z,2.12
2022-12-19T11:07:44.360Z,2.24
2022-12-19T11:08:44.493Z,2.24
2022-12-19T11:09:47.793Z,2.24
2022-12-19T11:11:43.511Z,2.31
2022-12-19T11:15:40.455Z,2.28
2022-12-19T11:16:10.150Z,2.35
2022-12-19T11:17:36.200Z,2.39
2022-12-19T11:21:02.177Z,2.35
2022-12-19T11:21:21.975Z,2.35
2022-12-19T11:22:43.616Z,2.35
2022-12-19T11:27:18.768Z,2.43
2022-12-19T11:29:17.815Z,2.42
2022-12-19T11:29:25.675Z,2.39
2022-12-19T11:29:26.598Z,2.39
2022-12-19T11:29:30.354Z,2.53
2022-12-19T11:29:34.803Z,2.41
2022-12-19T11:29:38.940Z,2.56
2022-12-19T11:30:06.371Z,2.48
2022-12-19T11:30:09.322Z,2.52
2022-12-19T11:30:36.478Z,2.52
2022-12-19T11:30:38.166Z,2.53
2022-12-19T11:30:45.424Z,2.53
2022-12-19T11:32:33.927Z,2.46
2022-12-19T11:32:45.861Z,2.45
2022-12-19T11:33:44.233Z,2.43
2022-12-19T11:34:44.197Z,2.43
2022-12-19T11:35:44.240Z,2.41
2022-12-19T11:36:44.199Z,2.48
2022-12-19T11:37:44.178Z,2.45
2022-12-19T11:38:44.153Z,2.39
2022-12-19T11:39:44.175Z,2.41
2022-12-19T11:40:48.993Z,2.43
2022-12-19T11:41:44.150Z,2.39
2022-12-19T11:42:44.169Z,2.30
2022-12-19T11:43:45.751Z,2.38
2022-12-19T11:44:44.237Z,2.39
2022-12-19T11:45:44.160Z,2.41
2022-12-19T11:46:44.134Z,2.31
2022-12-19T11:47:44.140Z,2.38
2022-12-19T11:48:44.093Z,2.38
2022-12-19T11:49:44.096Z,2.34
2022-12-19T11:50:44.085Z,2.39
2022-12-19T11:51:44.091Z,2.35
2022-12-19T11:53:44.074Z,2.42
2022-12-19T11:54:44.059Z,2.45
2022-12-19T11:55:44.066Z,2.46
2022-12-19T11:56:44.054Z,2.39
2022-12-19T11:57:44.060Z,2.48
2022-12-19T11:58:44.081Z,2.48
2022-12-19T11:59:44.042Z,2.54
2022-12-19T12:00:44.125Z,2.46
2022-12-19T12:01:44.178Z,2.53
2022-12-19T12:02:44.005Z,2.53
2022-12-19T12:04:01.793Z,2.57
2022-12-19T12:04:44.045Z,2.60
2022-12-19T12:05:44.007Z,2.57
2022-12-19T12:06:45.539Z,2.61
2022-12-19T12:09:11.979Z,2.61
2022-12-19T12:10:14.027Z,2.64
2022-12-19T12:11:57.695Z,2.56
2022-12-19T12:16:31.145Z,2.54
2022-12-19T12:18:36.767Z,2.69
2022-12-19T12:20:11.268Z,2.66
2022-12-19T12:22:24.511Z,2.64
2022-12-19T12:25:42.087Z,2.64
2022-12-19T12:27:18.872Z,2.67
2022-12-19T12:28:19.540Z,2.67
2022-12-19T12:29:56.645Z,2.67
2022-12-19T12:31:00.803Z,2.74
2022-12-19T12:31:07.743Z,2.77
2022-12-19T12:31:14.029Z,2.78
2022-12-19T12:31:28.141Z,2.75
2022-12-19T12:31:28.530Z,2.67
2022-12-19T12:31:42.626Z,2.66
2022-12-19T12:31:49.435Z,2.63
2022-12-19T12:31:51.874Z,2.67
2022-12-19T12:31:57.248Z,2.61
2022-12-19T12:31:58.818Z,2.69
2022-12-19T12:32:02.055Z,2.63
2022-12-19T12:32:04.343Z,2.60
2022-12-19T12:32:04.978Z,2.66
2022-12-19T12:35:28.682Z,2.66
2022-12-19T12:35:45.384Z,2.67
2022-12-19T12:35:46.220Z,2.66
2022-12-19T12:38:44.121Z,2.59
2022-12-19T12:39:43.792Z,2.61
2022-12-19T12:40:43.790Z,2.59
2022-12-19T12:41:43.787Z,2.54
2022-12-19T12:42:43.789Z,2.54
2022-12-19T12:43:43.768Z,2.59
2022-12-19T12:44:46.166Z,2.57
2022-12-19T12:45:43.803Z,2.57
2022-12-19T12:46:43.762Z,2.59
2022-12-19T12:47:43.749Z,2.56
2022-12-19T12:48:43.771Z,2.53
2022-12-19T12:49:44.253Z,2.56
2022-12-19T12:50:43.750Z,2.45
2022-12-19T12:51:43.733Z,2.59
2022-12-19T12:52:43.755Z,2.49
2022-12-19T12:53:43.727Z,2.59
2022-12-19T12:54:43.725Z,2.54
2022-12-19T12:55:43.688Z,2.48
2022-12-19T12:56:43.696Z,2.53
2022-12-19T12:57:43.733Z,2.56
2022-12-19T12:58:43.673Z,2.54
2022-12-19T12:59:43.676Z,2.59
2022-12-19T13:00:43.656Z,2.53
2022-12-19T13:01:43.783Z,2.53
2022-12-19T13:02:44.505Z,2.45
2022-12-19T13:03:43.741Z,2.52
2022-12-19T13:04:45.241Z,2.56
2022-12-19T13:05:47.390Z,2.53
2022-12-19T13:06:46.898Z,2.60
2022-12-19T13:07:43.732Z,2.57
2022-12-19T13:08:47.892Z,2.63
2022-12-19T13:09:47.397Z,2.53
2022-12-19T13:10:45.913Z,2.56
2022-12-19T13:11:45.449Z,2.60
2022-12-19T13:12:45.894Z,2.63
2022-12-19T13:13:43.715Z,2.54
2022-12-19T13:14:44.497Z,2.63
2022-12-19T13:15:47.908Z,2.60